Time;durP1;ratioP1;P1;durP2;ratioP2;P2;SDS_P1;SDS_P2;PMS_P1;PMS_P2;Temp;Humidity;BMP_temperature;BMP_pressure;BME280_temperature;BME280_humidity;BME280_pressure;Samples;Min_cycle;Max_cycle;Signal;HPM_P1;HPM_P2
2022/06/04 00:06:49;;;;;;;1.65;1.25;;;;;;;17.22;69.30;101858.97;20804400;28;20049;-75
2022/06/04 00:16:51;;;;;;;1.40;1.30;;;;;;;17.20;69.40;101851.00;20803725;28;20049;-75
2022/06/04 00:26:53;;;;;;;2.30;1.38;;;;;;;17.20;69.42;101844.75;20803960;28;20053;-75
2022/06/04 00:36:54;;;;;;;1.58;1.45;;;;;;;17.19;69.27;101827.75;20801591;28;20057;-77
2022/06/04 00:47:20;;;;;;;1.23;1.13;;;;;;;17.18;69.19;101835.94;20799541;28;20057;-74
2022/06/04 00:57:25;;;;;;;;;;;;;;;17.17;69.27;101840.44;20794901;28;20056;-75
2022/06/04 01:07:42;;;;;;;1.80;1.40;;;;;;;17.16;69.30;101827.97;20797936;28;19961;-75
2022/06/04 01:17:56;;;;;;;1.40;1.30;;;;;;;17.14;69.29;101837.13;20879556;28;20057;-75
2022/06/04 01:28:05;;;;;;;1.40;1.30;;;;;;;17.15;69.17;101837.00;20880191;28;20436;-74
2022/06/04 01:38:28;;;;;;;1.58;1.40;;;;;;;16.95;69.29;101808.78;20879554;28;20052;-74
2022/06/04 01:48:31;;;;;;;2.38;1.55;;;;;;;17.14;69.28;101850.59;20851559;28;20055;-75
2022/06/04 01:58:47;;;;;;;1.73;1.60;;;;;;;17.09;69.21;101834.75;20895553;28;20171;-75
2022/06/04 02:08:54;;;;;;;1.90;1.55;;;;;;;17.13;69.09;101846.16;20830681;28;20734;-74
2022/06/04 02:18:58;;;;;;;1.95;1.70;;;;;;;17.08;68.96;101854.56;20891988;28;20067;-75
2022/06/04 02:29:00;;;;;;;1.50;1.40;;;;;;;16.92;69.14;101852.03;20893558;28;20501;-75
2022/06/04 02:39:12;;;;;;;2.30;1.80;;;;;;;17.12;69.15;101892.88;20892637;28;20135;-75
2022/06/04 02:49:20;;;;;;;1.63;1.52;;;;;;;17.10;69.03;101893.84;20893314;28;20417;-75
2022/06/04 02:59:24;;;;;;;1.98;1.67;;;;;;;16.53;68.84;101790.16;20889032;28;20056;-75
2022/06/04 03:09:25;;;;;;;1.85;1.67;;;;;;;17.09;69.00;101858.97;20890408;28;20123;-74
2022/06/04 03:19:27;;;;;;;2.55;1.60;;;;;;;17.08;68.84;101849.19;20871666;28;20130;-75
2022/06/04 03:29:29;;;;;;;1.95;1.75;;;;;;;17.08;68.79;101841.09;20890113;28;20044;-75
2022/06/04 03:39:30;;;;;;;2.33;1.70;;;;;;;17.06;68.67;101841.22;20887611;28;20106;-74
2022/06/04 03:49:32;;;;;;;3.00;1.80;;;;;;;17.07;68.66;101852.84;20820489;28;20580;-75
2022/06/04 03:59:33;;;;;;;2.50;1.75;;;;;;;17.06;68.63;101852.00;20802543;28;20048;-74
2022/06/04 04:09:40;;;;;;;1.92;1.65;;;;;;;17.06;68.68;101854.69;20794848;28;20057;-75
2022/06/04 04:19:42;;;;;;;1.80;1.70;;;;;;;17.05;68.66;101855.66;20802896;28;20457;-75
2022/06/04 04:29:43;;;;;;;1.58;1.48;;;;;;;17.05;68.66;101846.69;20802609;28;20509;-75
2022/06/04 04:39:45;;;;;;;1.90;1.63;;;;;;;17.05;68.64;101835.94;20800041;28;20405;-75
2022/06/04 04:49:47;;;;;;;1.80;1.70;;;;;;;16.91;68.73;101823.41;20796965;28;20136;-75
2022/06/04 04:59:48;;;;;;;1.98;1.77;;;;;;;17.05;68.50;101863.72;20800189;28;20085;-75
2022/06/04 05:09:50;;;;;;;2.03;1.73;;;;;;;16.92;68.57;101854.72;20844739;28;20075;-75
2022/06/04 05:19:51;;;;;;;1.73;1.60;;;;;;;17.01;68.21;101851.41;20913730;28;20067;-75
2022/06/04 05:29:53;;;;;;;3.25;1.95;;;;;;;17.12;70.12;101891.03;20879700;28;20497;-75
2022/06/04 05:39:54;;;;;;;5.30;2.17;;;;;;;17.16;70.60;101892.53;20927055;28;20061;-75
2022/06/04 05:49:56;;;;;;;3.67;2.03;;;;;;;17.16;74.02;101871.00;20868425;28;20088;-74
2022/06/04 05:59:58;;;;;;;3.85;1.60;;;;;;;17.23;73.57;101891.16;20758289;28;20188;-74
2022/06/04 06:10:00;;;;;;;2.38;1.73;;;;;;;17.24;72.77;101911.72;20786826;28;20051;-74
2022/06/04 06:20:03;;;;;;;2.65;1.92;;;;;;;17.16;72.07;101914.06;20799699;28;20049;-74
2022/06/04 06:30:05;;;;;;;1.98;1.80;;;;;;;17.25;71.72;101932.28;20838159;28;20131;-74
2022/06/04 06:40:08;;;;;;;2.60;1.73;;;;;;;17.27;71.55;101934.00;20868838;28;20057;-74
2022/06/04 06:50:09;;;;;;;2.13;1.50;;;;;;;17.28;71.22;101943.81;20790489;28;20131;-74
2022/06/04 07:00:12;;;;;;;4.00;1.70;;;;;;;17.24;71.07;101927.88;20792293;28;20060;-74
2022/06/04 07:10:14;;;;;;;1.95;1.45;;;;;;;17.27;71.24;101937.53;20796266;28;20045;-76
2022/06/04 07:20:18;;;;;;;2.28;1.63;;;;;;;17.19;71.30;101930.00;20813767;28;20098;-76
2022/06/04 07:30:20;;;;;;;2.90;1.70;;;;;;;17.34;71.04;101946.06;20727524;28;20465;-76
2022/06/04 07:40:21;;;;;;;2.83;1.90;;;;;;;17.41;70.68;101941.97;20752693;28;20057;-76
2022/06/04 07:50:23;;;;;;;2.25;1.85;;;;;;;17.49;70.38;101963.81;20805555;28;20447;-76
2022/06/04 08:00:24;;;;;;;1.90;1.73;;;;;;;17.43;70.16;101937.34;20805212;28;20060;-76
2022/06/04 08:10:26;;;;;;;2.22;1.77;;;;;;;17.30;70.15;101936.47;20804052;28;20057;-76
2022/06/04 08:20:28;;;;;;;3.75;1.92;;;;;;;17.46;70.09;101942.50;20802068;28;20045;-76
2022/06/04 08:30:29;;;;;;;2.67;1.75;;;;;;;17.44;70.06;101943.56;20757642;28;20559;-77
2022/06/04 08:40:38;;;;;;;2.83;2.28;;;;;;;17.42;70.00;101946.38;20839015;28;20075;-76
2022/06/04 08:50:40;;;;;;;2.03;1.80;;;;;;;17.21;69.98;101897.63;20827946;28;20529;-74
2022/06/04 09:00:46;;;;;;;2.58;1.90;;;;;;;17.33;70.02;101920.13;20820980;28;20056;-75
2022/06/04 09:10:52;;;;;;;1.88;1.77;;;;;;;17.44;69.96;101919.34;20798682;28;20041;-75
2022/06/04 09:20:56;;;;;;;2.10;1.70;;;;;;;17.43;69.99;101942.72;20774744;28;20049;-75
2022/06/04 09:31:07;;;;;;;2.00;1.80;;;;;;;17.43;69.94;101931.97;20781517;28;20337;-75
2022/06/04 09:41:18;;;;;;;2.78;1.92;;;;;;;16.90;69.67;101851.28;20814548;28;20073;-76
2022/06/04 09:51:25;;;;;;;1.70;1.60;;;;;;;17.24;69.75;101905.47;20835460;28;20421;-76
2022/06/04 10:01:27;;;;;;;2.50;2.10;;;;;;;17.41;69.78;101941.97;20792573;28;20053;-75
2022/06/04 10:11:28;;;;;;;3.63;1.70;;;;;;;17.46;69.83;101966.72;20780904;28;20103;-75
2022/06/04 10:21:35;;;;;;;3.10;1.90;;;;;;;17.47;69.75;101957.69;20776459;28;20118;-75
2022/06/04 10:31:53;;;;;;;1.92;1.73;;;;;;;17.47;69.93;101964.91;20852723;28;20485;-75
2022/06/04 10:42:36;;;;;;;2.15;1.90;;;;;;;17.47;69.96;101964.91;20865554;28;20041;-75
2022/06/04 10:52:43;;;;;;;1.83;1.73;;;;;;;17.46;69.80;101969.44;20756791;28;20046;-75
2022/06/04 11:02:49;;;;;;;2.10;1.90;;;;;;;17.46;69.83;101974.81;20786578;28;20053;-75
2022/06/04 11:12:57;;;;;;;2.10;1.90;;;;;;;17.46;69.86;101964.03;20784719;28;20103;-75
2022/06/04 11:23:28;;;;;;;2.40;2.13;;;;;;;17.39;69.89;101930.44;20763174;28;20061;-76
2022/06/04 11:33:44;;;;;;;2.05;1.88;;;;;;;17.45;69.95;101948.88;20775000;28;20094;-75
2022/06/04 11:43:49;;;;;;;2.15;1.83;;;;;;;17.46;69.97;101929.03;20768753;28;20056;-75
2022/06/04 11:53:54;;;;;;;2.10;1.90;;;;;;;17.47;70.04;101949.59;20783222;28;20497;-76
2022/06/04 12:03:58;;;;;;;;;;;;;;;17.47;69.87;101943.38;20848380;28;20041;-75
2022/06/04 12:14:01;;;;;;;2.20;1.83;;;;;;;17.45;69.91;101948.88;20822175;28;19951;-75
2022/06/04 12:24:18;;;;;;;2.70;2.20;;;;;;;17.45;70.12;101951.56;20789863;28;20414;-75
2022/06/04 12:34:32;;;;;;;1.80;1.70;;;;;;;17.46;70.01;101953.28;20772223;28;20073;-76
2022/06/04 12:44:34;;;;;;;2.08;1.80;;;;;;;17.46;69.92;101953.28;20786100;28;20111;-76
2022/06/04 12:54:39;;;;;;;1.90;1.70;;;;;;;17.47;69.94;101941.53;20779273;28;20045;-75
2022/06/04 13:04:45;;;;;;;2.10;1.83;;;;;;;17.48;69.93;101939.72;20775798;28;20049;-75
2022/06/04 13:15:06;;;;;;;2.00;1.80;;;;;;;17.49;69.96;101946.81;20774145;28;20059;-75
2022/06/04 13:25:13;;;;;;;1.90;1.70;;;;;;;17.44;69.94;101932.81;20769294;28;20048;-75
2022/06/04 13:35:22;;;;;;;2.50;2.17;;;;;;;17.47;69.87;101928.06;20741446;28;20045;-75
2022/06/04 13:45:29;;;;;;;1.65;1.55;;;;;;;17.47;70.00;101925.38;20853403;28;20514;-75
2022/06/04 13:55:48;;;;;;;1.90;1.70;;;;;;;17.43;69.71;101915.81;20872471;28;20044;-75
2022/06/04 14:05:53;;;;;;;2.15;1.70;;;;;;;17.46;69.75;101923.66;20871894;28;20049;-75
2022/06/04 14:16:01;;;;;;;2.33;1.90;;;;;;;17.47;69.87;101913.78;20800100;28;20057;-75
2022/06/04 14:26:07;;;;;;;1.58;1.48;;;;;;;17.48;69.78;101905.56;20813096;28;20053;-75
2022/06/04 14:36:17;;;;;;;2.85;1.80;;;;;;;17.45;69.84;101895.03;20879552;28;20048;-75
2022/06/04 14:46:31;;;;;;;2.00;1.80;;;;;;;17.48;69.96;101892.09;20883693;28;20049;-75
2022/06/04 14:57:06;;;;;;;2.00;1.80;;;;;;;17.51;69.94;101893.72;20840522;28;20057;-75
2022/06/04 15:07:22;;;;;;;2.20;1.90;;;;;;;17.51;69.94;101883.81;20773955;28;20057;-75
2022/06/04 15:17:47;;;;;;;2.15;1.85;;;;;;;17.50;70.08;101868.63;20778615;28;20057;-75
2022/06/04 15:28:03;;;;;;;2.23;1.80;;;;;;;17.52;70.03;101868.53;20770952;28;20125;-76
2022/06/04 15:38:19;;;;;;;1.85;1.60;;;;;;;17.52;70.10;101855.91;20765887;28;20066;-75
2022/06/04 15:48:27;;;;;;;1.95;1.80;;;;;;;17.40;70.29;101819.13;20768979;28;20065;-75
2022/06/04 15:58:45;;;;;;;1.92;1.75;;;;;;;17.42;70.43;101821.69;20765029;28;20045;-75
2022/06/04 16:09:17;;;;;;;4.10;2.30;;;;;;;17.53;70.53;101846.03;20779402;28;20071;-74
2022/06/04 16:19:56;;;;;;;5.82;2.90;;;;;;;17.54;70.91;101853.97;20845009;28;20529;-74
2022/06/04 16:30:24;;;;;;;12.00;4.95;;;;;;;17.56;71.25;101855.69;20821555;28;20052;-74
2022/06/04 16:50:46;;;;;;;16.25;7.20;;;;;;;17.57;71.49;101835.88;20759405;28;20048;-75
2022/06/04 17:00:59;;;;;;;86.93;32.05;;;;;;;17.65;80.30;101845.13;20777072;28;20401;-76
2022/06/04 17:11:09;;;;;;;81.97;26.88;;;;;;;17.52;83.70;101802.06;20794300;28;20107;-77
2022/06/04 17:21:27;;;;;;;67.55;25.95;;;;;;;17.87;81.75;101842.69;20777738;28;20049;-75
2022/06/04 17:31:56;;;;;;;61.17;25.60;;;;;;;17.72;80.87;101823.13;20781567;28;20056;-75
2022/06/04 17:41:57;;;;;;;47.25;21.67;;;;;;;17.70;80.79;101831.34;20783365;28;20136;-75
2022/06/04 17:51:59;;;;;;;49.85;19.52;;;;;;;17.74;80.33;101861.56;20817040;28;20041;-75
2022/06/04 18:02:01;;;;;;;41.90;19.00;;;;;;;17.52;79.27;101831.69;20808657;28;20059;-75
2022/06/04 18:12:03;;;;;;;38.97;17.45;;;;;;;17.65;78.87;101876.56;20876930;28;20106;-75
2022/06/04 18:22:05;;;;;;;37.90;16.20;;;;;;;17.49;83.34;101844.53;20822213;28;20433;-75
2022/06/04 18:32:09;;;;;;;31.88;13.95;;;;;;;17.59;84.23;101833.94;20790128;28;20501;-75
2022/06/04 19:02:53;;;;;;;22.02;10.98;;;;;;;17.73;79.79;101879.59;20891488;28;20055;-75
2022/06/04 19:33:35;;;;;;;20.55;9.75;;;;;;;17.62;79.34;101877.66;20934372;28;20102;-76
2022/06/04 19:43:38;;;;;;;18.27;8.73;;;;;;;17.61;79.32;101883.13;20917240;28;20045;-76
2022/06/04 20:04:00;;;;;;;17.17;8.05;;;;;;;17.56;78.82;101871.84;20814808;28;20140;-76
2022/06/04 20:14:02;;;;;;;16.63;7.82;;;;;;;17.41;78.82;101869.28;20791997;28;20080;-76
2022/06/04 20:24:05;;;;;;;13.80;7.53;;;;;;;17.54;78.72;101893.50;20791063;28;20448;-76
2022/06/04 20:34:07;;;;;;;12.30;7.03;;;;;;;17.52;78.58;101915.16;20772259;28;20075;-75
2022/06/04 20:44:09;;;;;;;9.63;5.25;;;;;;;17.51;78.59;101899.97;20807752;28;20053;-76
2022/06/04 20:54:13;;;;;;;12.63;6.60;;;;;;;17.51;78.40;101896.44;20787368;28;20497;-76
2022/06/04 21:04:14;;;;;;;11.88;5.70;;;;;;;17.49;78.08;101885.75;20778676;28;20042;-76
2022/06/04 21:14:17;;;;;;;12.32;5.82;;;;;;;17.48;78.09;101891.25;20797462;28;20049;-76
2022/06/04 21:24:18;;;;;;;8.05;4.97;;;;;;;17.25;77.78;101846.16;20794846;28;20049;-75
2022/06/04 21:44:40;;;;;;;7.18;4.43;;;;;;;17.45;77.67;101891.44;20875709;28;20049;-76
2022/06/04 21:54:43;;;;;;;7.00;4.15;;;;;;;17.40;77.48;101864.88;20923924;28;20053;-76
2022/06/04 22:04:44;;;;;;;7.55;4.70;;;;;;;17.45;77.22;101860.03;20883210;28;20049;-76
2022/06/04 22:14:48;;;;;;;6.95;4.00;;;;;;;17.34;76.77;101835.72;20902603;28;20052;-76
2022/06/04 22:24:49;;;;;;;7.95;4.13;;;;;;;17.43;77.05;101839.56;20838484;28;20362;-76
2022/06/04 22:34:51;;;;;;;5.82;3.55;;;;;;;17.17;76.83;101813.53;20829846;28;20041;-76
2022/06/04 22:44:53;;;;;;;6.53;3.88;;;;;;;17.42;76.56;101851.28;20815602;28;20135;-76
2022/06/04 22:54:55;;;;;;;5.78;3.78;;;;;;;17.40;76.60;101867.56;20830924;28;20053;-76
2022/06/04 23:04:58;;;;;;;5.22;3.53;;;;;;;17.39;76.49;101880.16;20801522;28;20076;-76
2022/06/04 23:25:01;;;;;;;6.22;3.60;;;;;;;17.34;76.17;101841.94;20801258;28;20076;-76
2022/06/04 23:35:03;;;;;;;4.65;3.00;;;;;;;17.37;76.01;101838.19;20791858;28;20037;-76
2022/06/04 23:45:06;;;;;;;4.85;3.20;;;;;;;17.35;76.01;101838.28;20799699;28;20238;-76
2022/06/04 23:55:08;;;;;;;4.82;2.88;;;;;;;17.35;75.81;101816.75;20791418;28;20048;-76
